Time;durP1;ratioP1;P1;durP2;ratioP2;P2;SDS_P1;SDS_P2;PMS_P1;PMS_P2;Temp;Humidity;BMP_temperature;BMP_pressure;BME280_temperature;BME280_humidity;BME280_pressure;Samples;Min_cycle;Max_cycle;Signal;HPM_P1;HPM_P2
2024/03/18 00:01:56;;;;;;;10.75;4.97;;;;;;;21.17;46.52;101660.80;2417792;73;50333;-79
2024/03/18 00:04:58;;;;;;;10.15;4.22;;;;;;;21.15;46.48;101657.95;2380987;73;51236;-78
2024/03/18 00:08:00;;;;;;;11.48;4.90;;;;;;;21.15;46.47;101655.27;2417890;72;51512;-79
2024/03/18 00:11:03;;;;;;;10.00;4.20;;;;;;;21.15;46.45;101661.98;2418033;73;50335;-78
2024/03/18 00:14:05;;;;;;;8.95;4.20;;;;;;;21.14;46.46;101658.95;2354513;73;51450;-79
2024/03/18 00:17:07;;;;;;;10.25;3.92;;;;;;;21.13;46.50;101654.08;2417904;73;50326;-79
2024/03/18 00:20:14;;;;;;;10.00;4.12;;;;;;;21.12;46.40;101645.69;2381193;73;49532;-79
2024/03/18 00:23:13;;;;;;;8.65;4.22;;;;;;;21.13;46.44;101645.17;2380374;73;22501;-78
2024/03/18 00:26:16;;;;;;;6.97;3.60;;;;;;;21.13;46.46;101643.83;2417924;73;50387;-78
2024/03/18 00:29:18;;;;;;;7.55;4.03;;;;;;;21.10;46.41;101641.81;2381527;73;51625;-79
2024/03/18 00:32:20;;;;;;;11.63;4.22;;;;;;;21.10;46.40;101645.84;2418209;73;51607;-79
2024/03/18 00:35:22;;;;;;;9.93;4.35;;;;;;;21.11;46.39;101652.06;2381539;73;51474;-79
2024/03/18 00:38:28;;;;;;;11.95;4.58;;;;;;;21.09;46.40;101636.11;2381430;73;51492;-79
2024/03/18 00:41:46;;;;;;;8.20;3.67;;;;;;;21.10;46.39;101640.98;2417603;73;22323;-79
2024/03/18 00:44:49;;;;;;;9.23;4.65;;;;;;;21.10;46.39;101640.98;2381180;73;49643;-79
2024/03/18 00:47:51;;;;;;;7.90;3.80;;;;;;;21.09;46.33;101637.45;2417966;73;50679;-79
2024/03/18 00:50:53;;;;;;;7.53;4.00;;;;;;;21.08;46.33;101637.62;2418196;73;51492;-79
2024/03/18 00:53:55;;;;;;;9.23;4.30;;;;;;;21.08;46.36;101633.58;2381328;73;51124;-78
2024/03/18 00:56:57;;;;;;;8.38;4.17;;;;;;;21.08;46.31;101638.97;2418008;73;51504;-79
2024/03/18 01:00:00;;;;;;;9.18;3.95;;;;;;;21.06;46.30;101637.78;2418167;73;50375;-79
2024/03/18 01:03:03;;;;;;;8.60;3.83;;;;;;;21.05;46.39;101636.12;2381291;73;50950;-80
2024/03/18 01:06:05;;;;;;;10.55;4.17;;;;;;;21.06;46.29;101639.64;2381634;73;51539;-79
2024/03/18 01:09:08;;;;;;;9.35;4.28;;;;;;;21.06;46.25;101635.09;2354565;73;50157;-78
2024/03/18 01:12:10;;;;;;;9.75;4.35;;;;;;;21.05;46.29;101641.50;2418086;73;50637;-81
2024/03/18 01:15:12;;;;;;;8.33;3.55;;;;;;;21.06;46.25;101630.22;2417725;73;50320;-78
2024/03/18 01:18:14;;;;;;;9.00;4.30;;;;;;;21.05;46.24;101628.05;2327875;73;49641;-79
2024/03/18 01:21:17;;;;;;;10.03;4.62;;;;;;;21.05;46.16;101626.70;2354426;73;52199;-80
2024/03/18 01:24:21;;;;;;;8.18;3.25;;;;;;;21.05;46.15;101625.36;2381692;73;50045;-80
2024/03/18 01:27:24;;;;;;;6.92;3.50;;;;;;;21.05;46.11;101621.83;2381690;73;51633;-80
2024/03/18 01:30:26;;;;;;;10.95;4.20;;;;;;;21.03;46.12;101626.03;2418011;73;50378;-80
2024/03/18 01:33:28;;;;;;;8.63;4.00;;;;;;;21.02;46.18;101618.98;2381080;73;50135;-80
2024/03/18 01:36:33;;;;;;;10.20;4.20;;;;;;;21.02;46.13;101613.60;2417814;73;51600;-80
2024/03/18 01:39:35;;;;;;;6.75;3.17;;;;;;;21.02;46.12;101610.91;2418101;73;24287;-79
2024/03/18 01:42:38;;;;;;;8.35;3.83;;;;;;;21.01;46.09;101615.94;2380871;73;49894;-80
2024/03/18 01:45:40;;;;;;;8.23;3.62;;;;;;;21.01;46.10;101619.14;2381069;73;52407;-80
2024/03/18 01:48:43;;;;;;;7.58;3.80;;;;;;;21.01;46.05;101619.98;2354385;73;50051;-78
2024/03/18 01:51:45;;;;;;;8.23;3.95;;;;;;;21.01;46.18;101620.49;2417932;72;52491;-80
2024/03/18 01:54:47;;;;;;;7.35;3.67;;;;;;;21.00;46.05;101615.63;2418255;73;50589;-81
2024/03/18 01:57:49;;;;;;;6.53;3.60;;;;;;;21.00;46.05;101615.63;2381925;73;50147;-81
2024/03/18 02:00:52;;;;;;;6.22;3.22;;;;;;;21.00;46.02;101608.90;2418736;73;50718;-81
2024/03/18 02:03:54;;;;;;;7.12;3.77;;;;;;;21.00;46.01;101608.90;2417975;73;51626;-80
2024/03/18 02:06:56;;;;;;;10.38;4.05;;;;;;;21.01;46.00;101609.73;2381034;73;50116;-80
2024/03/18 02:09:59;;;;;;;6.70;3.52;;;;;;;21.00;45.97;101603.52;2417999;73;50749;-79
2024/03/18 02:13:04;;;;;;;8.95;3.58;;;;;;;20.98;45.98;101592.08;2418020;73;51538;-79
2024/03/18 02:16:07;;;;;;;8.20;3.55;;;;;;;20.98;45.96;101590.73;2381440;73;50668;-80
2024/03/18 02:19:09;;;;;;;8.45;3.60;;;;;;;20.99;45.95;101591.09;2381541;73;51418;-80
2024/03/18 02:22:11;;;;;;;7.15;3.50;;;;;;;20.98;45.96;101581.83;2381314;73;50109;-79
2024/03/18 02:25:13;;;;;;;8.08;3.80;;;;;;;20.98;45.96;101585.36;2380995;73;51537;-80
2024/03/18 02:28:15;;;;;;;8.40;3.70;;;;;;;20.98;45.95;101583.18;2417883;72;50745;-80
2024/03/18 02:31:18;;;;;;;9.25;3.90;;;;;;;20.98;45.93;101579.98;2380990;73;49628;-81
2024/03/18 02:34:20;;;;;;;6.55;3.22;;;;;;;20.97;45.95;101573.45;2417740;72;51500;-80
2024/03/18 02:37:22;;;;;;;6.80;3.27;;;;;;;20.97;45.94;101568.06;2417558;73;50355;-79
2024/03/18 02:40:25;;;;;;;6.22;3.35;;;;;;;20.97;45.96;101570.23;2417684;73;51515;-79
2024/03/18 02:43:27;;;;;;;5.33;3.22;;;;;;;20.96;45.93;101561.84;2381417;73;52106;-79
2024/03/18 02:46:29;;;;;;;6.95;3.27;;;;;;;20.96;45.93;101555.61;2381148;73;51685;-80
2024/03/18 02:49:31;;;;;;;5.45;3.15;;;;;;;20.95;45.92;101552.09;2417902;73;51521;-80
2024/03/18 02:52:34;;;;;;;9.98;3.65;;;;;;;20.96;45.93;101550.23;2417915;73;51433;-81
2024/03/18 02:55:36;;;;;;;6.58;2.85;;;;;;;20.96;45.93;101544.84;2381393;73;51338;-79
2024/03/18 02:58:38;;;;;;;5.75;2.87;;;;;;;20.95;45.89;101533.25;2381531;73;51550;-81
2024/03/18 03:01:40;;;;;;;7.17;3.02;;;;;;;20.95;45.90;101530.56;2418269;72;52457;-80
2024/03/18 03:04:43;;;;;;;7.30;3.30;;;;;;;20.95;45.89;101522.48;2381188;73;51433;-81
2024/03/18 03:07:45;;;;;;;4.80;3.35;;;;;;;20.95;45.87;101526.52;2381415;73;50620;-80
2024/03/18 03:10:47;;;;;;;8.38;3.20;;;;;;;20.94;45.89;101518.14;2418203;72;50546;-80
2024/03/18 03:13:49;;;;;;;6.12;3.00;;;;;;;20.95;45.89;101523.00;2381325;73;50060;-80
2024/03/18 03:16:51;;;;;;;4.83;2.62;;;;;;;20.94;45.88;101520.00;2417921;73;50135;-81
2024/03/18 03:19:54;;;;;;;9.40;3.22;;;;;;;20.95;45.89;101530.56;2382094;73;50087;-82
2024/03/18 03:22:56;;;;;;;6.30;3.15;;;;;;;20.95;45.88;101526.52;2418243;73;51547;-82
2024/03/18 03:25:58;;;;;;;5.50;3.00;;;;;;;20.94;45.87;101518.66;2418219;73;51594;-82
2024/03/18 03:29:01;;;;;;;6.53;3.22;;;;;;;20.94;45.87;101526.20;2381792;73;50079;-80
2024/03/18 03:32:03;;;;;;;6.50;3.35;;;;;;;20.93;45.87;101516.44;2381841;73;50734;-79
2024/03/18 03:35:05;;;;;;;5.33;3.15;;;;;;;20.92;45.87;101525.55;2381769;73;50279;-79
2024/03/18 03:38:07;;;;;;;6.42;3.00;;;;;;;20.93;45.86;101525.86;2328726;73;51025;-80
2024/03/18 03:41:10;;;;;;;9.78;3.25;;;;;;;20.92;45.86;101524.20;2418657;73;51256;-79
2024/03/18 03:44:12;;;;;;;6.80;3.30;;;;;;;20.92;45.85;101523.36;2418779;73;50687;-79
2024/03/18 03:47:15;;;;;;;6.85;2.87;;;;;;;20.91;45.85;101533.77;2418441;73;50692;-81
2024/03/18 03:50:18;;;;;;;5.50;3.50;;;;;;;20.92;45.87;101532.78;2418207;73;50955;-82
2024/03/18 03:53:20;;;;;;;5.33;3.08;;;;;;;20.91;45.83;101531.09;2355070;73;51100;-81
2024/03/18 03:56:22;;;;;;;6.58;3.27;;;;;;;20.90;45.83;101523.53;2418372;72;50138;-82
2024/03/18 03:59:24;;;;;;;4.95;2.67;;;;;;;20.90;45.83;101519.50;2382048;73;50650;-81
2024/03/18 04:02:27;;;;;;;4.45;2.72;;;;;;;20.90;45.80;101517.31;2381667;73;51687;-81
2024/03/18 04:05:29;;;;;;;6.67;2.85;;;;;;;20.90;45.81;101520.01;2418404;73;50430;-81
2024/03/18 04:08:31;;;;;;;6.60;3.12;;;;;;;20.90;45.80;101522.19;2418576;73;50508;-81
2024/03/18 04:11:33;;;;;;;5.75;2.90;;;;;;;20.90;45.79;101517.31;2418372;73;52413;-80
2024/03/18 04:14:35;;;;;;;6.62;2.80;;;;;;;20.88;45.80;101514.31;2418036;73;51548;-79
2024/03/18 04:17:38;;;;;;;6.92;3.00;;;;;;;20.88;45.81;101515.66;2381091;73;51035;-79
2024/03/18 04:20:40;;;;;;;4.47;2.80;;;;;;;20.89;45.79;101516.48;2418081;73;50203;-80
2024/03/18 04:23:42;;;;;;;4.50;2.60;;;;;;;20.87;45.82;101518.00;2418204;73;50435;-80
2024/03/18 04:26:47;;;;;;;4.85;2.58;;;;;;;20.87;45.81;101516.65;2381221;73;49500;-80
2024/03/18 04:29:49;;;;;;;4.62;2.42;;;;;;;20.87;45.79;101516.65;2417959;73;24487;-79
2024/03/18 04:32:51;;;;;;;7.03;2.83;;;;;;;20.87;45.82;101513.12;2417780;73;52008;-80
2024/03/18 04:35:53;;;;;;;5.97;2.58;;;;;;;20.86;45.80;101508.77;2417760;73;50706;-79
2024/03/18 04:38:56;;;;;;;3.87;2.70;;;;;;;20.87;45.80;101513.12;2418208;73;50879;-79
2024/03/18 04:41:58;;;;;;;6.10;2.80;;;;;;;20.86;45.80;101502.88;2381516;73;49636;-80
2024/03/18 04:45:00;;;;;;;5.28;2.58;;;;;;;20.86;45.78;101508.77;2418127;72;50721;-79
2024/03/18 04:48:04;;;;;;;4.87;2.65;;;;;;;20.87;45.77;101503.71;2418110;73;51604;-79
2024/03/18 04:51:07;;;;;;;5.55;2.70;;;;;;;20.87;45.76;101507.75;2329223;73;50154;-80
2024/03/18 04:54:09;;;;;;;4.55;2.27;;;;;;;20.84;45.78;101506.77;2418406;73;50763;-80
2024/03/18 04:57:11;;;;;;;4.40;2.75;;;;;;;20.85;45.75;101505.22;2418202;73;51468;-79
2024/03/18 05:00:16;;;;;;;3.85;2.33;;;;;;;20.84;45.74;101510.80;2381808;73;51471;-80
2024/03/18 05:03:18;;;;;;;4.83;2.75;;;;;;;20.84;45.75;101509.45;2418602;72;51231;-80
2024/03/18 05:06:21;;;;;;;4.10;2.47;;;;;;;20.82;45.76;101508.78;2354405;73;50951;-79
2024/03/18 05:09:23;;;;;;;3.50;2.12;;;;;;;20.82;45.75;101511.48;2418474;73;51245;-80
2024/03/18 05:12:25;;;;;;;4.08;2.02;;;;;;;20.82;45.75;101510.12;2418519;73;50946;-81
2024/03/18 05:15:28;;;;;;;3.92;2.20;;;;;;;20.81;45.76;101509.30;2381481;73;50088;-80
2024/03/18 05:18:30;;;;;;;4.85;2.70;;;;;;;20.81;45.74;101507.13;2418378;73;51411;-80
2024/03/18 05:21:35;;;;;;;4.83;2.60;;;;;;;20.82;45.75;101510.12;2381691;73;50672;-79
2024/03/18 05:24:38;;;;;;;4.92;2.37;;;;;;;20.79;45.73;101514.52;2417845;73;50655;-80
2024/03/18 05:27:40;;;;;;;5.58;2.65;;;;;;;20.80;45.72;101504.09;2418217;73;50923;-80
2024/03/18 05:30:42;;;;;;;5.12;2.58;;;;;;;20.80;45.72;101508.12;2354670;73;50794;-80
2024/03/18 05:33:44;;;;;;;7.90;2.55;;;;;;;20.80;45.72;101510.81;2418363;72;50604;-81
2024/03/18 05:36:47;;;;;;;5.30;2.65;;;;;;;20.80;45.71;101513.50;2418188;73;50631;-80
2024/03/18 05:39:49;;;;;;;5.20;2.17;;;;;;;20.80;45.72;101522.91;2381317;73;50915;-80
2024/03/18 05:42:51;;;;;;;4.58;2.47;;;;;;;20.79;45.72;101523.42;2418072;73;51450;-81
2024/03/18 05:45:53;;;;;;;3.37;2.30;;;;;;;20.78;45.74;101521.77;2417963;73;51504;-81
2024/03/18 05:48:55;;;;;;;2.75;1.98;;;;;;;20.78;45.71;101522.24;2418117;72;50460;-79
2024/03/18 05:51:58;;;;;;;3.65;2.10;;;;;;;20.78;45.76;101517.73;2403408;72;50328;-79
2024/03/18 05:55:01;;;;;;;44.85;3.35;;;;;;;20.77;45.80;101503.09;2344097;74;51116;-79
2024/03/18 05:58:03;;;;;;;13.72;3.25;;;;;;;20.77;46.03;101496.38;2344231;74;50622;-79
2024/03/18 06:01:10;;;;;;;16.50;2.92;;;;;;;20.79;46.06;101499.73;2373651;72;51451;-79
2024/03/18 06:04:12;;;;;;;16.30;3.55;;;;;;;20.80;46.30;101510.81;2401228;72;49446;-77
2024/03/18 06:07:19;;;;;;;11.33;2.87;;;;;;;20.81;46.44;101503.09;2439807;72;50315;-81
2024/03/18 06:10:19;;;;;;;15.32;3.20;;;;;;;20.84;46.37;101509.45;2468515;72;23272;-81
2024/03/18 06:13:21;;;;;;;24.90;4.10;;;;;;;20.84;46.37;101509.45;2468939;72;50551;-80
2024/03/18 06:16:23;;;;;;;24.80;3.52;;;;;;;20.82;46.44;101506.09;2468712;72;51511;-80
2024/03/18 06:19:33;;;;;;;12.90;3.67;;;;;;;20.82;46.74;101508.27;2428002;72;49599;-79
2024/03/18 06:22:36;;;;;;;28.10;3.70;;;;;;;20.83;46.70;101505.07;2467356;72;22359;-79
2024/03/18 06:28:54;;;;;;;14.05;3.12;;;;;;;20.88;46.69;101509.41;2469333;72;22396;-79
2024/03/18 06:31:56;;;;;;;25.20;3.50;;;;;;;20.88;46.79;101509.41;2428522;72;50965;-79
2024/03/18 06:34:58;;;;;;;44.88;4.92;;;;;;;20.88;46.67;101513.45;2469464;72;50582;-79
2024/03/18 06:38:01;;;;;;;37.25;4.55;;;;;;;20.89;46.59;101520.52;2468833;72;50752;-79
2024/03/18 06:41:03;;;;;;;23.40;4.00;;;;;;;20.89;46.78;101517.83;2468823;72;50712;-79
2024/03/18 06:44:05;;;;;;;32.98;4.75;;;;;;;20.90;46.76;101520.84;2372472;72;49602;-79
2024/03/18 06:47:07;;;;;;;32.88;4.33;;;;;;;20.90;46.78;101522.19;2468845;72;50874;-79
2024/03/18 06:50:10;;;;;;;22.42;3.70;;;;;;;20.89;46.99;101521.86;2468837;72;51598;-79
2024/03/18 06:53:12;;;;;;;24.70;4.35;;;;;;;20.88;46.71;101522.86;2427893;72;51283;-79
2024/03/18 06:56:15;;;;;;;33.02;4.67;;;;;;;20.88;46.70;101521.03;2427941;72;50094;-79
2024/03/18 06:59:18;;;;;;;27.27;4.25;;;;;;;20.88;46.80;101510.75;2451340;72;51499;-79
2024/03/18 07:02:20;;;;;;;21.77;4.10;;;;;;;20.90;46.75;101507.39;2384882;73;50329;-78
2024/03/18 07:05:23;;;;;;;22.22;3.90;;;;;;;20.90;46.61;101509.25;2421439;73;50371;-78
2024/03/18 07:08:26;;;;;;;25.20;3.90;;;;;;;20.91;46.58;101509.08;2384693;73;51089;-79
2024/03/18 07:11:29;;;;;;;31.02;4.85;;;;;;;20.90;46.60;101510.08;2331807;73;50376;-79
2024/03/18 07:14:32;;;;;;;18.30;3.47;;;;;;;20.91;46.54;101506.39;2331548;73;50298;-80
2024/03/18 07:17:37;;;;;;;18.62;3.27;;;;;;;20.91;46.53;101510.42;2384806;73;52606;-78
2024/03/18 07:20:39;;;;;;;13.55;3.90;;;;;;;20.92;46.48;101506.71;2359785;73;52933;-78
2024/03/18 07:23:42;;;;;;;12.82;3.20;;;;;;;20.92;46.48;101500.50;2385056;73;50728;-79
2024/03/18 07:26:44;;;;;;;16.10;3.30;;;;;;;20.93;46.50;101502.16;2385118;73;51392;-79
2024/03/18 07:29:46;;;;;;;17.42;3.75;;;;;;;20.92;46.48;101506.71;2421784;72;51500;-79
2024/03/18 07:32:48;;;;;;;23.35;3.47;;;;;;;20.94;46.49;101498.47;2385073;73;49580;-79
2024/03/18 07:35:52;;;;;;;18.42;3.10;;;;;;;20.93;46.49;101496.27;2421734;73;50223;-79
2024/03/18 07:38:54;;;;;;;20.37;3.83;;;;;;;20.95;46.43;101494.75;2421137;73;50386;-79
2024/03/18 07:41:58;;;;;;;18.02;3.92;;;;;;;20.94;46.31;101495.27;2384959;73;49731;-79
2024/03/18 07:45:00;;;;;;;17.25;3.25;;;;;;;20.94;46.30;101488.55;2421604;73;52460;-79
2024/03/18 07:48:04;;;;;;;14.93;2.92;;;;;;;20.95;46.26;101495.58;2421746;73;52434;-80
2024/03/18 07:51:08;;;;;;;14.25;2.90;;;;;;;20.95;46.19;101491.55;2359295;73;50671;-80
2024/03/18 07:54:11;;;;;;;13.10;3.08;;;;;;;20.96;46.12;101488.34;2421737;72;51514;-79
2024/03/18 07:57:13;;;;;;;15.03;3.00;;;;;;;20.96;46.04;101482.97;2384820;73;50099;-79
2024/03/18 08:00:16;;;;;;;19.52;3.08;;;;;;;20.96;46.01;101481.14;2385114;73;52368;-79
2024/03/18 08:03:18;;;;;;;20.27;3.70;;;;;;;20.97;45.97;101484.14;2358065;73;50788;-79
2024/03/18 08:06:20;;;;;;;15.60;3.12;;;;;;;20.97;45.94;101485.48;2384677;73;49631;-79
2024/03/18 08:09:23;;;;;;;15.50;3.00;;;;;;;20.98;45.90;101476.39;2421720;73;50378;-81
2024/03/18 08:12:25;;;;;;;10.72;2.70;;;;;;;21.00;45.82;101479.74;2421525;73;51554;-79
2024/03/18 08:15:28;;;;;;;16.07;3.10;;;;;;;20.99;45.81;101476.73;2421569;73;50244;-80
2024/03/18 08:18:31;;;;;;;12.28;3.10;;;;;;;21.00;45.79;101469.50;2421720;72;50222;-81
2024/03/18 08:21:34;;;;;;;11.15;2.42;;;;;;;21.01;45.75;101476.03;2384818;73;51437;-79
2024/03/18 08:24:38;;;;;;;14.83;2.85;;;;;;;21.03;45.61;101478.55;2420608;73;50432;-78
2024/03/18 08:27:42;;;;;;;12.68;3.10;;;;;;;21.02;45.61;101473.69;2421545;73;50876;-79
2024/03/18 08:30:44;;;;;;;10.72;2.60;;;;;;;21.04;45.59;101472.14;2358367;73;51233;-79
2024/03/18 08:33:46;;;;;;;10.05;2.35;;;;;;;21.04;45.54;101468.97;2421839;73;50816;-79
2024/03/18 08:36:48;;;;;;;7.37;2.30;;;;;;;21.05;45.53;101476.02;2421547;72;50116;-79
2024/03/18 08:39:54;;;;;;;8.10;2.25;;;;;;;21.05;45.16;101461.72;2385224;73;50958;-79
2024/03/18 08:42:54;;;;;;;13.40;2.37;;;;;;;21.07;45.26;101461.88;2420987;73;22425;-79
2024/03/18 08:45:57;;;;;;;12.25;2.70;;;;;;;21.08;45.04;101474.30;2384689;73;52432;-80
2024/03/18 08:48:59;;;;;;;10.68;2.87;;;;;;;21.09;44.87;101470.61;2385260;73;50258;-79
2024/03/18 08:52:03;;;;;;;13.58;3.10;;;;;;;21.12;44.72;101469.41;2421506;73;50370;-79
2024/03/18 08:55:06;;;;;;;10.25;2.47;;;;;;;21.12;44.58;101456.44;2421514;73;23224;-79
2024/03/18 08:58:08;;;;;;;10.23;2.20;;;;;;;21.13;44.48;101461.66;2384871;73;50445;-79
2024/03/18 09:01:11;;;;;;;8.18;2.20;;;;;;;21.15;44.47;101466.36;2385064;73;50616;-80
2024/03/18 09:04:13;;;;;;;5.37;2.05;;;;;;;21.17;44.42;101455.39;2421949;73;50297;-80
2024/03/18 09:07:16;;;;;;;10.43;2.12;;;;;;;21.19;44.37;101462.27;2421794;73;50409;-80
2024/03/18 09:10:19;;;;;;;7.28;2.15;;;;;;;21.21;44.23;101459.41;2357640;73;51328;-80
2024/03/18 09:13:21;;;;;;;7.00;1.90;;;;;;;21.20;44.21;101457.75;2385242;73;51574;-80
2024/03/18 09:16:23;;;;;;;6.22;1.98;;;;;;;21.22;44.16;101453.00;2421692;73;51558;-80
2024/03/18 09:19:26;;;;;;;7.65;2.20;;;;;;;21.24;44.18;101448.27;2384810;73;50127;-79
2024/03/18 09:22:28;;;;;;;7.75;1.90;;;;;;;21.25;44.21;101455.35;2421536;73;50670;-79
2024/03/18 09:25:30;;;;;;;9.03;2.17;;;;;;;21.25;44.15;101442.72;2384883;73;51532;-78
2024/03/18 09:28:33;;;;;;;5.70;2.45;;;;;;;21.28;44.23;101452.29;2421592;73;51424;-78
2024/03/18 09:31:35;;;;;;;8.55;1.95;;;;;;;21.30;44.19;101452.95;2385217;73;51495;-78
2024/03/18 09:34:37;;;;;;;6.97;2.00;;;;;;;21.31;44.10;101447.88;2384484;73;49604;-78
2024/03/18 09:37:40;;;;;;;6.08;1.85;;;;;;;21.32;44.06;101448.20;2384920;73;51511;-78
2024/03/18 09:40:42;;;;;;;4.62;2.10;;;;;;;21.34;44.06;101443.48;2421484;73;50380;-79
2024/03/18 09:43:44;;;;;;;4.70;1.80;;;;;;;21.35;44.05;101439.78;2421482;73;50399;-78
2024/03/18 09:46:48;;;;;;;6.53;1.90;;;;;;;21.37;44.07;101440.41;2421436;73;50355;-79
2024/03/18 09:49:51;;;;;;;5.47;1.98;;;;;;;21.37;44.04;101436.38;2421283;72;49939;-78
2024/03/18 09:52:53;;;;;;;6.62;2.20;;;;;;;21.39;43.96;101441.62;2421347;73;51563;-79
2024/03/18 09:55:55;;;;;;;5.33;2.15;;;;;;;21.39;43.98;101439.76;2421508;73;51542;-80
2024/03/18 09:58:57;;;;;;;4.62;1.60;;;;;;;21.40;43.94;101432.03;2384621;73;51004;-79
2024/03/18 10:02:00;;;;;;;4.37;1.60;;;;;;;21.41;43.93;101422.09;2421582;72;51566;-79
2024/03/18 10:05:04;;;;;;;5.17;1.82;;;;;;;21.41;43.92;101420.23;2421340;73;51473;-79
2024/03/18 10:08:07;;;;;;;5.65;1.87;;;;;;;21.45;43.82;101420.20;2358967;73;22367;-79
2024/03/18 10:11:15;;;;;;;5.95;1.80;;;;;;;21.47;43.83;101423.52;2385718;73;50296;-79
2024/03/18 10:14:17;;;;;;;6.28;1.70;;;;;;;21.47;43.76;101413.27;2421677;73;52026;-79
2024/03/18 10:17:19;;;;;;;5.50;1.82;;;;;;;21.50;43.74;101416.45;2421507;73;51127;-79
2024/03/18 10:20:23;;;;;;;6.42;1.85;;;;;;;21.52;43.71;101418.42;2421652;72;50134;-79
2024/03/18 10:23:26;;;;;;;5.62;1.65;;;;;;;21.52;43.63;101418.94;2384657;73;49595;-79
2024/03/18 10:26:28;;;;;;;5.85;1.35;;;;;;;21.54;43.67;101415.56;2385197;73;50753;-79
2024/03/18 10:29:30;;;;;;;6.62;1.70;;;;;;;21.56;43.55;101404.62;2421566;73;51572;-79
2024/03/18 10:32:32;;;;;;;3.52;1.60;;;;;;;21.57;43.47;101413.01;2384473;73;51616;-79
2024/03/18 10:35:35;;;;;;;4.55;1.90;;;;;;;21.58;43.41;101411.49;2421398;73;51623;-78
2024/03/18 10:38:37;;;;;;;7.25;1.65;;;;;;;21.60;43.46;101409.94;2384819;73;50327;-78
2024/03/18 10:41:40;;;;;;;5.97;1.70;;;;;;;21.61;43.35;101395.47;2421585;72;50710;-79
2024/03/18 10:44:46;;;;;;;4.62;1.67;;;;;;;21.63;43.38;101396.09;2358144;73;50646;-79
2024/03/18 10:47:48;;;;;;;4.45;1.67;;;;;;;21.63;43.43;101400.14;2410435;73;50620;-79
2024/03/18 10:50:50;;;;;;;7.35;1.67;;;;;;;21.66;43.19;101399.80;2384737;73;51519;-79
2024/03/18 10:53:52;;;;;;;3.52;1.27;;;;;;;21.68;43.16;101404.46;2421549;73;50379;-79
2024/03/18 10:56:55;;;;;;;5.08;1.30;;;;;;;21.70;43.09;101405.95;2384674;73;49615;-79
2024/03/18 10:59:57;;;;;;;3.10;1.20;;;;;;;21.71;43.03;101391.99;2384944;73;50661;-79
2024/03/18 11:03:03;;;;;;;2.77;1.50;;;;;;;21.70;43.16;101388.44;2421267;73;51514;-79
2024/03/18 11:06:06;;;;;;;4.40;1.42;;;;;;;21.72;43.08;101390.95;2358424;73;50442;-80
2024/03/18 11:09:11;;;;;;;2.65;1.20;;;;;;;21.73;43.06;101391.27;2358266;73;52301;-79
2024/03/18 11:12:35;;;;;;;5.50;1.32;;;;;;;21.74;43.04;101377.62;2384741;73;52522;-79
2024/03/18 11:15:48;;;;;;;3.33;1.07;;;;;;;21.75;43.01;101375.77;2385777;73;50263;-79
2024/03/18 11:18:50;;;;;;;2.52;1.15;;;;;;;21.75;43.07;101375.77;2421809;73;50480;-80
2024/03/18 11:22:04;;;;;;;5.10;1.42;;;;;;;21.76;42.98;101370.72;2357819;73;50946;-78
2024/03/18 11:25:18;;;;;;;3.77;1.60;;;;;;;21.76;43.02;101377.45;2358844;73;50322;-79
2024/03/18 11:28:21;;;;;;;3.77;1.27;;;;;;;21.75;43.06;101374.42;2421639;73;51606;-79
2024/03/18 11:31:23;;;;;;;4.17;1.40;;;;;;;21.76;42.88;101369.37;2421526;72;50305;-79
2024/03/18 11:34:26;;;;;;;3.47;1.80;;;;;;;21.76;42.82;101362.64;2421454;73;50685;-79
2024/03/18 11:37:28;;;;;;;4.03;1.42;;;;;;;21.78;42.90;101361.09;2384390;73;50994;-79
2024/03/18 11:40:30;;;;;;;3.02;1.40;;;;;;;21.77;42.93;101357.56;2421690;73;51570;-79
2024/03/18 11:43:33;;;;;;;2.58;1.10;;;;;;;21.75;43.05;101341.58;2358055;73;50722;-79
2024/03/18 11:46:35;;;;;;;4.05;1.27;;;;;;;21.77;42.93;101344.09;2384597;73;52582;-79
2024/03/18 11:49:37;;;;;;;4.33;1.50;;;;;;;21.78;42.99;101350.31;2421283;73;51477;-78
2024/03/18 11:52:45;;;;;;;3.05;1.25;;;;;;;21.76;42.91;101347.83;2384739;73;51496;-79
2024/03/18 11:55:44;;;;;;;2.17;1.20;;;;;;;21.76;42.97;101339.75;2384336;73;22443;-79
2024/03/18 11:58:46;;;;;;;2.67;1.27;;;;;;;21.75;43.07;101336.19;2384565;73;50685;-80
2024/03/18 12:01:50;;;;;;;2.15;1.40;;;;;;;21.77;43.08;101334.67;2385008;73;51647;-79
2024/03/18 12:04:52;;;;;;;2.83;1.10;;;;;;;21.78;42.91;101324.72;2421876;73;24610;-79
2024/03/18 12:07:54;;;;;;;2.72;1.20;;;;;;;21.79;42.91;101324.55;2421565;73;51484;-79
2024/03/18 12:10:57;;;;;;;3.75;1.22;;;;;;;21.78;42.96;101330.94;2421777;73;50768;-79
2024/03/18 12:14:00;;;;;;;2.92;1.30;;;;;;;21.80;42.92;101324.03;2422131;73;50413;-78
2024/03/18 12:17:02;;;;;;;3.60;1.37;;;;;;;21.83;42.68;101334.42;2421626;73;51579;-79
2024/03/18 12:20:06;;;;;;;1.87;0.98;;;;;;;21.83;42.69;101316.91;2384963;73;51035;-80
2024/03/18 12:28:31;;;;;;;2.47;1.10;;;;;;;21.84;42.55;101319.95;2358786;73;51674;-80
2024/03/18 12:29:39;;;;;;;1.70;0.78;;;;;;;21.83;42.60;101311.00;2422183;73;24375;-79
2024/03/18 12:32:41;;;;;;;2.55;1.12;;;;;;;21.82;42.49;101308.00;2421861;73;50728;-79
2024/03/18 12:35:44;;;;;;;3.08;1.50;;;;;;;21.80;42.66;101312.73;2385118;73;50309;-78
2024/03/18 12:38:50;;;;;;;3.02;1.15;;;;;;;21.82;42.69;101308.52;2421649;73;50714;-78
2024/03/18 12:41:53;;;;;;;1.62;1.02;;;;;;;21.83;42.54;101308.83;2386273;73;50453;-78
2024/03/18 12:44:55;;;;;;;1.57;0.93;;;;;;;21.81;42.58;101305.48;2384620;73;52786;-79
2024/03/18 12:47:58;;;;;;;3.22;1.25;;;;;;;21.80;42.61;101303.30;2421553;73;50710;-79
2024/03/18 12:51:00;;;;;;;1.92;1.10;;;;;;;21.79;42.62;101303.00;2384821;73;50340;-79
2024/03/18 12:54:06;;;;;;;1.55;1.05;;;;;;;21.80;42.31;101300.61;2384698;73;49516;-79
2024/03/18 12:57:06;;;;;;;3.20;0.80;;;;;;;21.80;42.28;101305.17;2385479;73;22393;-79
2024/03/18 13:00:10;;;;;;;2.30;1.10;;;;;;;21.77;42.29;101302.34;2421783;72;51411;-79
2024/03/18 13:03:16;;;;;;;2.98;1.10;;;;;;;21.77;42.10;101299.65;2359012;73;51625;-79
2024/03/18 13:06:18;;;;;;;2.45;1.00;;;;;;;21.75;42.15;101301.69;2421504;73;50539;-79
2024/03/18 13:09:21;;;;;;;1.60;0.90;;;;;;;21.75;42.24;101296.30;2384455;73;51053;-79
2024/03/18 13:12:23;;;;;;;1.17;0.88;;;;;;;21.75;42.28;101300.34;2421056;72;50536;-79
2024/03/18 13:15:26;;;;;;;2.62;1.00;;;;;;;21.74;42.23;101297.34;2421390;73;52402;-79
2024/03/18 13:18:28;;;;;;;2.17;1.07;;;;;;;21.72;42.27;101296.16;2384487;73;49643;-78
2024/03/18 13:21:32;;;;;;;1.60;0.90;;;;;;;21.72;42.20;101304.77;2421630;73;50649;-79
2024/03/18 13:24:35;;;;;;;1.85;1.22;;;;;;;21.71;42.17;101298.55;2421687;73;51620;-79
2024/03/18 13:27:37;;;;;;;2.50;1.15;;;;;;;21.70;42.13;101296.03;2421509;72;51585;-79
2024/03/18 13:30:39;;;;;;;1.60;0.90;;;;;;;21.70;42.07;101298.20;2384810;73;51434;-79
2024/03/18 13:33:41;;;;;;;2.85;1.00;;;;;;;21.70;42.03;101294.69;2384805;73;49599;-79
2024/03/18 13:36:43;;;;;;;1.82;0.88;;;;;;;21.68;42.15;101298.07;2384919;73;50780;-79
2024/03/18 13:39:46;;;;;;;2.42;0.90;;;;;;;21.69;42.03;101290.33;2421549;73;50724;-79
2024/03/18 13:42:48;;;;;;;1.15;0.90;;;;;;;21.68;42.10;101294.89;2384278;73;52988;-79
2024/03/18 13:45:52;;;;;;;2.87;0.98;;;;;;;21.68;42.18;101285.95;2421543;73;50353;-79
2024/03/18 13:48:54;;;;;;;1.62;1.07;;;;;;;21.66;42.24;101277.25;2421743;73;50411;-79
2024/03/18 13:51:57;;;;;;;1.45;1.00;;;;;;;21.67;42.22;101289.16;2421613;73;50670;-79
2024/03/18 13:55:03;;;;;;;1.30;0.88;;;;;;;21.67;42.17;101280.25;2384759;73;52577;-79
2024/03/18 13:58:05;;;;;;;1.45;0.80;;;;;;;21.67;42.21;101278.91;2421381;73;22335;-79
2024/03/18 14:01:14;;;;;;;2.70;1.02;;;;;;;21.66;42.23;101278.08;2385383;73;51563;-80
2024/03/18 14:04:17;;;;;;;1.80;1.00;;;;;;;21.66;42.19;101274.03;2385617;73;51465;-79
2024/03/18 14:07:20;;;;;;;1.82;0.82;;;;;;;21.67;42.28;101269.48;2384681;73;51356;-78
2024/03/18 14:10:22;;;;;;;1.20;0.90;;;;;;;21.67;42.18;101274.87;2421522;73;50288;-79
2024/03/18 14:13:24;;;;;;;2.17;0.82;;;;;;;21.68;42.20;101275.17;2421693;73;50573;-80
2024/03/18 14:16:26;;;;;;;1.90;0.80;;;;;;;21.67;42.24;101269.48;2421462;73;51535;-79